Terminal Aerodrome Forecast
Issued by NWS Sioux Falls, SD

Home | Current Version | Previous Version | Text Only | Print | Product List | Glossary On
Versions: 1 2 3 4 5 6 7 8 9 10 11 12 13 14 15 16 17 18 19 20 21 22
000
FTUS43 KFSD 260500
TAFSUX
TAF
KSUX 260521Z 2606/2706 VRB03KT P6SM SCT035 SCT150
      TEMPO 2609/2613 4SM BR
     FM261500 06006KT P6SM SCT035
     FM270000 VRB04KT P6SM SCT050=

USA.gov is the U.S. government's official web portal to all federal, state and local government web resources and services.